sensor_id;sensor_type;location;lat;lon;timestamp;temperature;humidity
5617;DHT22;2830;50.656;7.568;2022-08-19T00:02:00;16.30;1.00
5617;DHT22;2830;50.656;7.568;2022-08-19T00:04:31;16.30;1.00
5617;DHT22;2830;50.656;7.568;2022-08-19T00:06:59;16.30;1.00
5617;DHT22;2830;50.656;7.568;2022-08-19T00:09:27;16.20;1.00
5617;DHT22;2830;50.656;7.568;2022-08-19T00:11:56;16.20;1.00
5617;DHT22;2830;50.656;7.568;2022-08-19T00:14:25;16.20;1.00
5617;DHT22;2830;50.656;7.568;2022-08-19T00:16:53;16.20;1.00
5617;DHT22;2830;50.656;7.568;2022-08-19T00:19:22;16.10;1.00
5617;DHT22;2830;50.656;7.568;2022-08-19T00:21:49;16.10;1.00
5617;DHT22;2830;50.656;7.568;2022-08-19T00:24:16;16.00;1.00
5617;DHT22;2830;50.656;7.568;2022-08-19T00:26:44;16.00;1.00
5617;DHT22;2830;50.656;7.568;2022-08-19T00:29:14;16.00;1.00
5617;DHT22;2830;50.656;7.568;2022-08-19T00:31:42;15.90;1.00
5617;DHT22;2830;50.656;7.568;2022-08-19T00:34:10;15.90;1.00
5617;DHT22;2830;50.656;7.568;2022-08-19T00:36:38;15.90;1.00
5617;DHT22;2830;50.656;7.568;2022-08-19T00:39:06;16.00;1.00
5617;DHT22;2830;50.656;7.568;2022-08-19T00:41:33;15.90;1.00
5617;DHT22;2830;50.656;7.568;2022-08-19T00:44:06;15.90;1.00
5617;DHT22;2830;50.656;7.568;2022-08-19T00:46:36;15.80;1.00
5617;DHT22;2830;50.656;7.568;2022-08-19T00:49:15;15.70;1.00
5617;DHT22;2830;50.656;7.568;2022-08-19T00:51:45;15.70;1.00
5617;DHT22;2830;50.656;7.568;2022-08-19T00:54:13;15.80;1.00
5617;DHT22;2830;50.656;7.568;2022-08-19T00:56:41;15.80;1.00
5617;DHT22;2830;50.656;7.568;2022-08-19T00:59:08;15.90;1.00
5617;DHT22;2830;50.656;7.568;2022-08-19T01:01:37;15.70;1.00
5617;DHT22;2830;50.656;7.568;2022-08-19T01:04:05;15.60;1.00
5617;DHT22;2830;50.656;7.568;2022-08-19T01:06:33;15.60;1.00
5617;DHT22;2830;50.656;7.568;2022-08-19T01:09:02;15.60;1.00
5617;DHT22;2830;50.656;7.568;2022-08-19T01:11:31;15.60;1.00
5617;DHT22;2830;50.656;7.568;2022-08-19T01:13:59;15.70;1.00
5617;DHT22;2830;50.656;7.568;2022-08-19T01:16:27;15.50;1.00
5617;DHT22;2830;50.656;7.568;2022-08-19T01:18:55;15.60;1.00
5617;DHT22;2830;50.656;7.568;2022-08-19T01:21:58;15.60;1.00
5617;DHT22;2830;50.656;7.568;2022-08-19T01:24:40;15.60;1.00
5617;DHT22;2830;50.656;7.568;2022-08-19T01:27:15;15.60;1.00
5617;DHT22;2830;50.656;7.568;2022-08-19T01:29:42;15.60;1.00
5617;DHT22;2830;50.656;7.568;2022-08-19T01:32:12;15.60;1.00
5617;DHT22;2830;50.656;7.568;2022-08-19T01:35:00;15.60;1.00
5617;DHT22;2830;50.656;7.568;2022-08-19T01:37:28;15.60;1.00
5617;DHT22;2830;50.656;7.568;2022-08-19T01:39:56;15.60;1.00
5617;DHT22;2830;50.656;7.568;2022-08-19T01:42:23;15.60;1.00
5617;DHT22;2830;50.656;7.568;2022-08-19T01:44:56;15.60;1.00
5617;DHT22;2830;50.656;7.568;2022-08-19T01:47:23;15.60;1.00
5617;DHT22;2830;50.656;7.568;2022-08-19T01:49:50;15.50;1.00
5617;DHT22;2830;50.656;7.568;2022-08-19T01:52:17;15.50;1.00
5617;DHT22;2830;50.656;7.568;2022-08-19T01:54:43;15.40;1.00
5617;DHT22;2830;50.656;7.568;2022-08-19T01:57:12;15.40;1.00
5617;DHT22;2830;50.656;7.568;2022-08-19T01:59:41;15.40;1.00
5617;DHT22;2830;50.656;7.568;2022-08-19T02:02:08;15.40;1.00
5617;DHT22;2830;50.656;7.568;2022-08-19T02:04:35;15.40;1.00
5617;DHT22;2830;50.656;7.568;2022-08-19T02:07:04;15.40;1.00
5617;DHT22;2830;50.656;7.568;2022-08-19T02:09:32;15.30;1.00
5617;DHT22;2830;50.656;7.568;2022-08-19T02:11:59;15.30;1.00
5617;DHT22;2830;50.656;7.568;2022-08-19T02:14:27;15.30;1.00
5617;DHT22;2830;50.656;7.568;2022-08-19T02:16:53;15.40;1.00
5617;DHT22;2830;50.656;7.568;2022-08-19T02:19:20;15.30;1.00
5617;DHT22;2830;50.656;7.568;2022-08-19T02:21:47;15.30;1.00
5617;DHT22;2830;50.656;7.568;2022-08-19T02:24:13;15.30;1.00
5617;DHT22;2830;50.656;7.568;2022-08-19T02:26:40;15.30;1.00
5617;DHT22;2830;50.656;7.568;2022-08-19T02:29:07;15.30;1.00
5617;DHT22;2830;50.656;7.568;2022-08-19T02:31:34;15.10;1.00
5617;DHT22;2830;50.656;7.568;2022-08-19T02:34:01;15.10;1.00
5617;DHT22;2830;50.656;7.568;2022-08-19T02:36:30;15.10;1.00
5617;DHT22;2830;50.656;7.568;2022-08-19T02:38:57;15.10;1.00
5617;DHT22;2830;50.656;7.568;2022-08-19T02:41:27;15.10;1.00
5617;DHT22;2830;50.656;7.568;2022-08-19T02:44:01;15.10;1.00
5617;DHT22;2830;50.656;7.568;2022-08-19T02:46:50;15.00;1.00
5617;DHT22;2830;50.656;7.568;2022-08-19T02:49:20;15.00;1.00
5617;DHT22;2830;50.656;7.568;2022-08-19T02:51:47;14.90;1.00
5617;DHT22;2830;50.656;7.568;2022-08-19T02:54:14;14.90;1.00
5617;DHT22;2830;50.656;7.568;2022-08-19T02:56:43;14.80;1.00
5617;DHT22;2830;50.656;7.568;2022-08-19T02:59:10;14.80;1.00
5617;DHT22;2830;50.656;7.568;2022-08-19T03:01:39;14.80;1.00
5617;DHT22;2830;50.656;7.568;2022-08-19T03:04:08;14.70;1.00
5617;DHT22;2830;50.656;7.568;2022-08-19T03:06:40;14.50;1.00
5617;DHT22;2830;50.656;7.568;2022-08-19T03:09:07;14.60;1.00
5617;DHT22;2830;50.656;7.568;2022-08-19T03:11:34;14.60;1.00
5617;DHT22;2830;50.656;7.568;2022-08-19T03:14:03;14.60;1.00
5617;DHT22;2830;50.656;7.568;2022-08-19T03:16:34;14.60;1.00
5617;DHT22;2830;50.656;7.568;2022-08-19T03:19:01;14.50;1.00
5617;DHT22;2830;50.656;7.568;2022-08-19T03:21:30;14.50;1.00
5617;DHT22;2830;50.656;7.568;2022-08-19T03:24:00;14.50;1.00
5617;DHT22;2830;50.656;7.568;2022-08-19T03:26:28;14.50;1.00
5617;DHT22;2830;50.656;7.568;2022-08-19T03:28:55;14.50;1.00
5617;DHT22;2830;50.656;7.568;2022-08-19T03:31:26;14.50;1.00
5617;DHT22;2830;50.656;7.568;2022-08-19T03:34:18;14.50;1.00
5617;DHT22;2830;50.656;7.568;2022-08-19T03:36:46;14.40;1.00
5617;DHT22;2830;50.656;7.568;2022-08-19T03:39:13;14.40;1.00
5617;DHT22;2830;50.656;7.568;2022-08-19T03:41:42;14.40;1.00
5617;DHT22;2830;50.656;7.568;2022-08-19T03:44:13;14.40;1.00
5617;DHT22;2830;50.656;7.568;2022-08-19T03:46:45;14.40;1.00
5617;DHT22;2830;50.656;7.568;2022-08-19T03:49:12;14.40;1.00
5617;DHT22;2830;50.656;7.568;2022-08-19T03:51:41;14.40;1.00
5617;DHT22;2830;50.656;7.568;2022-08-19T03:54:10;14.40;1.00
5617;DHT22;2830;50.656;7.568;2022-08-19T03:56:39;14.30;1.00
5617;DHT22;2830;50.656;7.568;2022-08-19T03:59:09;14.30;1.00
5617;DHT22;2830;50.656;7.568;2022-08-19T04:01:36;14.20;1.00
5617;DHT22;2830;50.656;7.568;2022-08-19T04:04:03;14.20;1.00
5617;DHT22;2830;50.656;7.568;2022-08-19T04:06:33;14.30;1.00
5617;DHT22;2830;50.656;7.568;2022-08-19T04:09:08;14.30;1.00
5617;DHT22;2830;50.656;7.568;2022-08-19T04:11:45;14.30;1.00
5617;DHT22;2830;50.656;7.568;2022-08-19T04:14:15;14.30;1.00
5617;DHT22;2830;50.656;7.568;2022-08-19T04:16:43;14.20;1.00
5617;DHT22;2830;50.656;7.568;2022-08-19T04:19:13;14.20;1.00
5617;DHT22;2830;50.656;7.568;2022-08-19T04:21:42;14.10;1.00
5617;DHT22;2830;50.656;7.568;2022-08-19T04:24:09;14.10;1.00
5617;DHT22;2830;50.656;7.568;2022-08-19T04:26:36;14.00;1.00
5617;DHT22;2830;50.656;7.568;2022-08-19T04:29:13;14.00;1.00
5617;DHT22;2830;50.656;7.568;2022-08-19T04:31:42;14.00;1.00
5617;DHT22;2830;50.656;7.568;2022-08-19T04:34:11;14.10;1.00
5617;DHT22;2830;50.656;7.568;2022-08-19T04:36:40;14.10;1.00
5617;DHT22;2830;50.656;7.568;2022-08-19T04:39:10;14.10;1.00
5617;DHT22;2830;50.656;7.568;2022-08-19T04:41:38;14.00;1.00
5617;DHT22;2830;50.656;7.568;2022-08-19T04:44:23;14.00;1.00
5617;DHT22;2830;50.656;7.568;2022-08-19T04:46:50;14.10;1.00
5617;DHT22;2830;50.656;7.568;2022-08-19T04:49:20;14.10;1.00
5617;DHT22;2830;50.656;7.568;2022-08-19T04:51:50;14.00;1.00
5617;DHT22;2830;50.656;7.568;2022-08-19T04:54:19;14.10;1.00
5617;DHT22;2830;50.656;7.568;2022-08-19T04:57:06;14.20;1.00
5617;DHT22;2830;50.656;7.568;2022-08-19T04:59:34;14.30;1.00
5617;DHT22;2830;50.656;7.568;2022-08-19T05:02:02;14.40;1.00
5617;DHT22;2830;50.656;7.568;2022-08-19T05:04:29;14.50;1.00
5617;DHT22;2830;50.656;7.568;2022-08-19T05:07:00;14.60;1.00
5617;DHT22;2830;50.656;7.568;2022-08-19T05:09:28;14.60;1.00
5617;DHT22;2830;50.656;7.568;2022-08-19T05:12:16;14.60;1.00
5617;DHT22;2830;50.656;7.568;2022-08-19T05:14:43;14.80;1.00
5617;DHT22;2830;50.656;7.568;2022-08-19T05:17:13;14.90;1.00
5617;DHT22;2830;50.656;7.568;2022-08-19T05:19:53;14.90;1.00
5617;DHT22;2830;50.656;7.568;2022-08-19T05:22:40;15.10;1.00
5617;DHT22;2830;50.656;7.568;2022-08-19T05:25:12;15.00;1.00
5617;DHT22;2830;50.656;7.568;2022-08-19T05:27:41;15.00;1.00
5617;DHT22;2830;50.656;7.568;2022-08-19T05:30:09;15.10;1.00
5617;DHT22;2830;50.656;7.568;2022-08-19T05:32:37;15.30;1.00
5617;DHT22;2830;50.656;7.568;2022-08-19T05:35:04;15.50;1.00
5617;DHT22;2830;50.656;7.568;2022-08-19T05:37:33;15.50;1.00
5617;DHT22;2830;50.656;7.568;2022-08-19T05:40:00;15.60;1.00
5617;DHT22;2830;50.656;7.568;2022-08-19T05:42:26;15.70;1.00
5617;DHT22;2830;50.656;7.568;2022-08-19T05:44:53;15.90;1.00
5617;DHT22;2830;50.656;7.568;2022-08-19T05:47:22;16.20;1.00
5617;DHT22;2830;50.656;7.568;2022-08-19T05:49:49;16.40;99.90
5617;DHT22;2830;50.656;7.568;2022-08-19T05:52:18;16.70;99.90
5617;DHT22;2830;50.656;7.568;2022-08-19T05:54:52;16.90;99.90
5617;DHT22;2830;50.656;7.568;2022-08-19T05:57:22;17.30;99.90
5617;DHT22;2830;50.656;7.568;2022-08-19T05:59:49;17.70;1.00
5617;DHT22;2830;50.656;7.568;2022-08-19T06:02:23;18.00;95.00
5617;DHT22;2830;50.656;7.568;2022-08-19T06:04:50;18.30;99.90
5617;DHT22;2830;50.656;7.568;2022-08-19T06:07:16;18.50;99.90
5617;DHT22;2830;50.656;7.568;2022-08-19T06:09:43;18.60;99.90
5617;DHT22;2830;50.656;7.568;2022-08-19T06:12:25;18.90;99.90
5617;DHT22;2830;50.656;7.568;2022-08-19T06:14:55;19.00;94.60
5617;DHT22;2830;50.656;7.568;2022-08-19T06:17:27;19.10;1.00
5617;DHT22;2830;50.656;7.568;2022-08-19T06:19:56;19.40;1.00
5617;DHT22;2830;50.656;7.568;2022-08-19T06:22:23;19.40;99.90
5617;DHT22;2830;50.656;7.568;2022-08-19T06:24:50;19.40;50.80
5617;DHT22;2830;50.656;7.568;2022-08-19T06:27:19;19.60;11.90
5617;DHT22;2830;50.656;7.568;2022-08-19T06:29:46;19.70;99.90
5617;DHT22;2830;50.656;7.568;2022-08-19T06:32:15;20.10;99.90
5617;DHT22;2830;50.656;7.568;2022-08-19T06:34:42;20.20;1.00
5617;DHT22;2830;50.656;7.568;2022-08-19T06:37:10;20.50;1.00
5617;DHT22;2830;50.656;7.568;2022-08-19T06:39:38;20.60;99.90
5617;DHT22;2830;50.656;7.568;2022-08-19T06:42:06;20.50;99.90
5617;DHT22;2830;50.656;7.568;2022-08-19T06:44:39;20.60;99.90
5617;DHT22;2830;50.656;7.568;2022-08-19T06:47:11;20.90;1.00
5617;DHT22;2830;50.656;7.568;2022-08-19T06:49:41;21.00;1.00
5617;DHT22;2830;50.656;7.568;2022-08-19T06:52:08;21.40;1.00
5617;DHT22;2830;50.656;7.568;2022-08-19T06:54:40;21.20;99.90
5617;DHT22;2830;50.656;7.568;2022-08-19T06:57:21;21.20;99.90
5617;DHT22;2830;50.656;7.568;2022-08-19T06:59:48;21.30;1.00
5617;DHT22;2830;50.656;7.568;2022-08-19T07:02:15;21.60;1.00
5617;DHT22;2830;50.656;7.568;2022-08-19T07:04:46;21.60;1.00
5617;DHT22;2830;50.656;7.568;2022-08-19T07:07:19;21.80;99.90
5617;DHT22;2830;50.656;7.568;2022-08-19T07:09:48;21.80;99.90
5617;DHT22;2830;50.656;7.568;2022-08-19T07:12:29;21.80;1.00
5617;DHT22;2830;50.656;7.568;2022-08-19T07:15:03;21.60;99.90
5617;DHT22;2830;50.656;7.568;2022-08-19T07:17:30;21.50;1.00
5617;DHT22;2830;50.656;7.568;2022-08-19T07:20:00;21.50;99.90
5617;DHT22;2830;50.656;7.568;2022-08-19T07:22:35;21.60;1.00
5617;DHT22;2830;50.656;7.568;2022-08-19T07:25:03;22.00;99.90
5617;DHT22;2830;50.656;7.568;2022-08-19T07:27:30;22.40;1.00
5617;DHT22;2830;50.656;7.568;2022-08-19T07:29:59;22.80;1.00
5617;DHT22;2830;50.656;7.568;2022-08-19T07:32:26;23.10;99.90
5617;DHT22;2830;50.656;7.568;2022-08-19T07:34:54;23.30;99.90
5617;DHT22;2830;50.656;7.568;2022-08-19T07:37:23;23.50;1.00
5617;DHT22;2830;50.656;7.568;2022-08-19T07:39:54;23.80;59.00
5617;DHT22;2830;50.656;7.568;2022-08-19T07:42:21;24.20;99.90
5617;DHT22;2830;50.656;7.568;2022-08-19T07:44:48;24.40;99.90
5617;DHT22;2830;50.656;7.568;2022-08-19T07:47:17;24.50;99.90
5617;DHT22;2830;50.656;7.568;2022-08-19T07:50:07;24.20;99.90
5617;DHT22;2830;50.656;7.568;2022-08-19T07:52:34;24.00;99.90
5617;DHT22;2830;50.656;7.568;2022-08-19T07:55:04;24.30;99.90
5617;DHT22;2830;50.656;7.568;2022-08-19T07:57:30;24.40;99.90
5617;DHT22;2830;50.656;7.568;2022-08-19T07:59:57;24.80;10.00
5617;DHT22;2830;50.656;7.568;2022-08-19T08:02:24;25.20;1.00
5617;DHT22;2830;50.656;7.568;2022-08-19T08:04:51;25.80;1.00
5617;DHT22;2830;50.656;7.568;2022-08-19T08:07:36;26.50;99.90
5617;DHT22;2830;50.656;7.568;2022-08-19T08:10:21;26.50;99.90
5617;DHT22;2830;50.656;7.568;2022-08-19T08:12:50;26.10;99.90
5617;DHT22;2830;50.656;7.568;2022-08-19T08:15:36;26.20;99.90
5617;DHT22;2830;50.656;7.568;2022-08-19T08:18:10;26.00;99.90
5617;DHT22;2830;50.656;7.568;2022-08-19T08:20:37;26.20;99.90
5617;DHT22;2830;50.656;7.568;2022-08-19T08:23:04;26.30;99.90
5617;DHT22;2830;50.656;7.568;2022-08-19T08:25:49;26.70;99.90
5617;DHT22;2830;50.656;7.568;2022-08-19T08:28:17;27.80;99.90
5617;DHT22;2830;50.656;7.568;2022-08-19T08:30:45;27.60;99.90
5617;DHT22;2830;50.656;7.568;2022-08-19T08:33:18;27.10;99.90
5617;DHT22;2830;50.656;7.568;2022-08-19T08:36:10;27.70;99.90
5617;DHT22;2830;50.656;7.568;2022-08-19T08:38:38;29.10;99.90
5617;DHT22;2830;50.656;7.568;2022-08-19T08:43:57;30.00;99.90
5617;DHT22;2830;50.656;7.568;2022-08-19T08:46:39;30.70;90.10
5617;DHT22;2830;50.656;7.568;2022-08-19T08:49:24;30.90;81.20
5617;DHT22;2830;50.656;7.568;2022-08-19T08:54:32;31.60;59.70
5617;DHT22;2830;50.656;7.568;2022-08-19T08:57:04;32.10;45.40
5617;DHT22;2830;50.656;7.568;2022-08-19T08:59:34;31.80;39.10
5617;DHT22;2830;50.656;7.568;2022-08-19T09:02:02;31.00;30.70
5617;DHT22;2830;50.656;7.568;2022-08-19T09:04:29;31.20;33.00
5617;DHT22;2830;50.656;7.568;2022-08-19T09:09:58;31.30;28.20
5617;DHT22;2830;50.656;7.568;2022-08-19T09:12:52;31.10;27.20
5617;DHT22;2830;50.656;7.568;2022-08-19T09:15:34;31.60;26.00
5617;DHT22;2830;50.656;7.568;2022-08-19T09:18:04;32.00;23.50
5617;DHT22;2830;50.656;7.568;2022-08-19T09:20:33;32.50;24.10
5617;DHT22;2830;50.656;7.568;2022-08-19T09:23:00;31.70;12.00
5617;DHT22;2830;50.656;7.568;2022-08-19T09:25:27;31.40;10.90
5617;DHT22;2830;50.656;7.568;2022-08-19T09:27:55;31.60;11.20
5617;DHT22;2830;50.656;7.568;2022-08-19T09:30:47;31.90;10.20
5617;DHT22;2830;50.656;7.568;2022-08-19T09:33:14;32.10;9.20
5617;DHT22;2830;50.656;7.568;2022-08-19T09:35:42;32.30;10.00
5617;DHT22;2830;50.656;7.568;2022-08-19T09:38:19;32.60;9.30
5617;DHT22;2830;50.656;7.568;2022-08-19T09:40:47;32.70;8.10
5617;DHT22;2830;50.656;7.568;2022-08-19T09:43:13;32.20;3.40
5617;DHT22;2830;50.656;7.568;2022-08-19T09:45:59;31.90;3.60
5617;DHT22;2830;50.656;7.568;2022-08-19T09:48:26;31.80;2.90
5617;DHT22;2830;50.656;7.568;2022-08-19T09:50:53;32.20;4.20
5617;DHT22;2830;50.656;7.568;2022-08-19T09:53:20;32.50;4.40
5617;DHT22;2830;50.656;7.568;2022-08-19T09:55:51;32.40;1.40
5617;DHT22;2830;50.656;7.568;2022-08-19T09:58:21;32.40;1.40
5617;DHT22;2830;50.656;7.568;2022-08-19T10:00:55;32.30;1.00
5617;DHT22;2830;50.656;7.568;2022-08-19T10:03:22;32.20;1.00
5617;DHT22;2830;50.656;7.568;2022-08-19T10:05:57;32.50;1.00
5617;DHT22;2830;50.656;7.568;2022-08-19T10:08:30;33.50;1.20
5617;DHT22;2830;50.656;7.568;2022-08-19T10:10:58;34.40;1.30
5617;DHT22;2830;50.656;7.568;2022-08-19T10:13:45;34.40;1.00
5617;DHT22;2830;50.656;7.568;2022-08-19T10:16:15;34.10;1.00
5617;DHT22;2830;50.656;7.568;2022-08-19T10:18:42;34.10;1.00
5617;DHT22;2830;50.656;7.568;2022-08-19T10:21:17;33.90;1.00
5617;DHT22;2830;50.656;7.568;2022-08-19T10:23:48;34.00;1.00
5617;DHT22;2830;50.656;7.568;2022-08-19T10:26:25;34.50;1.00
5617;DHT22;2830;50.656;7.568;2022-08-19T10:28:53;33.10;1.00
5617;DHT22;2830;50.656;7.568;2022-08-19T10:31:26;32.30;1.00
5617;DHT22;2830;50.656;7.568;2022-08-19T10:34:13;32.60;1.00
5617;DHT22;2830;50.656;7.568;2022-08-19T10:36:54;33.30;1.00
5617;DHT22;2830;50.656;7.568;2022-08-19T10:39:28;34.50;1.00
5617;DHT22;2830;50.656;7.568;2022-08-19T10:41:57;35.10;1.00
5617;DHT22;2830;50.656;7.568;2022-08-19T10:44:24;34.60;1.00
5617;DHT22;2830;50.656;7.568;2022-08-19T10:46:57;34.60;1.00
5617;DHT22;2830;50.656;7.568;2022-08-19T10:49:25;33.70;1.00
5617;DHT22;2830;50.656;7.568;2022-08-19T10:51:54;32.60;1.00
5617;DHT22;2830;50.656;7.568;2022-08-19T10:54:46;33.00;1.00
5617;DHT22;2830;50.656;7.568;2022-08-19T10:57:34;33.60;1.00
5617;DHT22;2830;50.656;7.568;2022-08-19T11:00:22;33.90;1.00
5617;DHT22;2830;50.656;7.568;2022-08-19T11:06:13;31.70;1.00
5617;DHT22;2830;50.656;7.568;2022-08-19T11:08:40;32.90;1.00
5617;DHT22;2830;50.656;7.568;2022-08-19T11:11:08;33.50;1.00
5617;DHT22;2830;50.656;7.568;2022-08-19T11:13:37;34.50;1.00
5617;DHT22;2830;50.656;7.568;2022-08-19T11:16:08;34.90;1.00
5617;DHT22;2830;50.656;7.568;2022-08-19T11:18:38;33.90;1.00
5617;DHT22;2830;50.656;7.568;2022-08-19T11:21:23;33.10;1.00
5617;DHT22;2830;50.656;7.568;2022-08-19T11:23:54;31.60;1.00
5617;DHT22;2830;50.656;7.568;2022-08-19T11:26:23;31.80;1.00
5617;DHT22;2830;50.656;7.568;2022-08-19T11:28:50;32.10;1.00
5617;DHT22;2830;50.656;7.568;2022-08-19T11:31:34;31.80;1.00
5617;DHT22;2830;50.656;7.568;2022-08-19T11:34:06;31.00;1.00
5617;DHT22;2830;50.656;7.568;2022-08-19T11:36:34;31.60;1.00
5617;DHT22;2830;50.656;7.568;2022-08-19T11:39:04;32.70;1.00
5617;DHT22;2830;50.656;7.568;2022-08-19T11:41:31;33.40;1.00
5617;DHT22;2830;50.656;7.568;2022-08-19T11:43:58;33.30;1.00
5617;DHT22;2830;50.656;7.568;2022-08-19T11:46:26;33.20;1.00
5617;DHT22;2830;50.656;7.568;2022-08-19T11:48:57;33.20;1.00
5617;DHT22;2830;50.656;7.568;2022-08-19T11:51:24;32.60;1.00
5617;DHT22;2830;50.656;7.568;2022-08-19T11:53:52;31.70;1.00
5617;DHT22;2830;50.656;7.568;2022-08-19T11:56:21;30.60;1.00
5617;DHT22;2830;50.656;7.568;2022-08-19T11:58:48;31.20;1.00
5617;DHT22;2830;50.656;7.568;2022-08-19T12:01:17;31.90;1.00
5617;DHT22;2830;50.656;7.568;2022-08-19T12:03:46;31.00;1.00
5617;DHT22;2830;50.656;7.568;2022-08-19T12:06:16;30.20;1.00
5617;DHT22;2830;50.656;7.568;2022-08-19T12:08:43;29.10;1.00
5617;DHT22;2830;50.656;7.568;2022-08-19T12:11:12;28.30;1.00
5617;DHT22;2830;50.656;7.568;2022-08-19T12:13:40;28.90;1.00
5617;DHT22;2830;50.656;7.568;2022-08-19T12:16:13;30.60;1.00
5617;DHT22;2830;50.656;7.568;2022-08-19T12:18:42;32.20;1.00
5617;DHT22;2830;50.656;7.568;2022-08-19T12:21:18;33.00;1.00
5617;DHT22;2830;50.656;7.568;2022-08-19T12:23:49;33.50;1.00
5617;DHT22;2830;50.656;7.568;2022-08-19T12:26:21;32.20;1.00
5617;DHT22;2830;50.656;7.568;2022-08-19T12:28:48;32.20;1.00
5617;DHT22;2830;50.656;7.568;2022-08-19T12:31:15;32.60;1.00
5617;DHT22;2830;50.656;7.568;2022-08-19T12:33:43;33.00;1.00
5617;DHT22;2830;50.656;7.568;2022-08-19T12:36:12;32.50;1.00
5617;DHT22;2830;50.656;7.568;2022-08-19T12:38:40;32.60;1.00
5617;DHT22;2830;50.656;7.568;2022-08-19T12:41:09;32.80;1.00
5617;DHT22;2830;50.656;7.568;2022-08-19T12:43:36;33.20;1.00
5617;DHT22;2830;50.656;7.568;2022-08-19T12:46:05;33.30;1.00
5617;DHT22;2830;50.656;7.568;2022-08-19T12:48:35;32.20;1.00
5617;DHT22;2830;50.656;7.568;2022-08-19T12:51:09;31.80;1.00
5617;DHT22;2830;50.656;7.568;2022-08-19T12:53:37;31.80;1.00
5617;DHT22;2830;50.656;7.568;2022-08-19T12:56:05;32.20;1.00
5617;DHT22;2830;50.656;7.568;2022-08-19T12:58:38;31.80;1.00
5617;DHT22;2830;50.656;7.568;2022-08-19T13:01:07;31.20;1.00
5617;DHT22;2830;50.656;7.568;2022-08-19T13:03:34;31.10;1.00
5617;DHT22;2830;50.656;7.568;2022-08-19T13:06:06;31.00;1.00
5617;DHT22;2830;50.656;7.568;2022-08-19T13:08:33;30.50;1.00
5617;DHT22;2830;50.656;7.568;2022-08-19T13:11:17;30.90;1.00
5617;DHT22;2830;50.656;7.568;2022-08-19T13:13:46;30.90;1.00
5617;DHT22;2830;50.656;7.568;2022-08-19T13:16:14;30.70;1.00
5617;DHT22;2830;50.656;7.568;2022-08-19T13:18:42;31.10;1.00
5617;DHT22;2830;50.656;7.568;2022-08-19T13:21:10;31.40;1.00
5617;DHT22;2830;50.656;7.568;2022-08-19T13:23:40;31.60;1.00
5617;DHT22;2830;50.656;7.568;2022-08-19T13:26:09;31.20;1.00
5617;DHT22;2830;50.656;7.568;2022-08-19T13:28:38;30.30;1.00
5617;DHT22;2830;50.656;7.568;2022-08-19T13:31:26;30.40;1.00
5617;DHT22;2830;50.656;7.568;2022-08-19T13:34:18;30.70;1.00
5617;DHT22;2830;50.656;7.568;2022-08-19T13:36:45;30.90;1.00
5617;DHT22;2830;50.656;7.568;2022-08-19T13:39:12;30.70;1.00
5617;DHT22;2830;50.656;7.568;2022-08-19T13:41:44;30.80;1.00
5617;DHT22;2830;50.656;7.568;2022-08-19T13:44:15;30.40;1.00
5617;DHT22;2830;50.656;7.568;2022-08-19T13:46:45;30.40;1.00
5617;DHT22;2830;50.656;7.568;2022-08-19T13:49:13;30.40;1.00
5617;DHT22;2830;50.656;7.568;2022-08-19T13:51:44;30.40;1.00
5617;DHT22;2830;50.656;7.568;2022-08-19T13:54:12;30.50;1.00
5617;DHT22;2830;50.656;7.568;2022-08-19T13:56:45;30.40;1.00
5617;DHT22;2830;50.656;7.568;2022-08-19T13:59:12;30.50;1.00
5617;DHT22;2830;50.656;7.568;2022-08-19T14:01:39;30.40;1.00
5617;DHT22;2830;50.656;7.568;2022-08-19T14:04:07;30.10;1.00
5617;DHT22;2830;50.656;7.568;2022-08-19T14:06:34;30.00;1.00
5617;DHT22;2830;50.656;7.568;2022-08-19T14:09:01;29.90;1.00
5617;DHT22;2830;50.656;7.568;2022-08-19T14:11:29;29.70;1.00
5617;DHT22;2830;50.656;7.568;2022-08-19T14:13:55;29.60;1.00
5617;DHT22;2830;50.656;7.568;2022-08-19T14:16:22;29.80;1.00
5617;DHT22;2830;50.656;7.568;2022-08-19T14:18:49;29.80;1.00
5617;DHT22;2830;50.656;7.568;2022-08-19T14:21:19;29.70;1.00
5617;DHT22;2830;50.656;7.568;2022-08-19T14:23:47;29.50;1.00
5617;DHT22;2830;50.656;7.568;2022-08-19T14:26:16;29.10;1.00
5617;DHT22;2830;50.656;7.568;2022-08-19T14:28:44;29.10;1.00
5617;DHT22;2830;50.656;7.568;2022-08-19T14:31:12;29.10;1.00
5617;DHT22;2830;50.656;7.568;2022-08-19T14:33:39;29.10;1.00
5617;DHT22;2830;50.656;7.568;2022-08-19T14:36:07;29.20;1.00
5617;DHT22;2830;50.656;7.568;2022-08-19T14:38:33;29.40;1.00
5617;DHT22;2830;50.656;7.568;2022-08-19T14:41:09;29.10;1.00
5617;DHT22;2830;50.656;7.568;2022-08-19T14:43:36;29.00;1.00
5617;DHT22;2830;50.656;7.568;2022-08-19T14:46:03;28.70;1.00
5617;DHT22;2830;50.656;7.568;2022-08-19T14:48:30;28.60;1.00
5617;DHT22;2830;50.656;7.568;2022-08-19T14:50:57;28.40;1.00
5617;DHT22;2830;50.656;7.568;2022-08-19T14:53:23;28.40;1.00
5617;DHT22;2830;50.656;7.568;2022-08-19T14:55:50;28.30;1.00
5617;DHT22;2830;50.656;7.568;2022-08-19T14:58:17;28.40;1.00
5617;DHT22;2830;50.656;7.568;2022-08-19T15:00:57;28.50;1.00
5617;DHT22;2830;50.656;7.568;2022-08-19T15:03:24;28.60;1.00
5617;DHT22;2830;50.656;7.568;2022-08-19T15:05:52;28.60;1.00
5617;DHT22;2830;50.656;7.568;2022-08-19T15:08:19;28.30;1.00
5617;DHT22;2830;50.656;7.568;2022-08-19T15:10:52;28.40;1.00
5617;DHT22;2830;50.656;7.568;2022-08-19T15:13:18;28.60;1.00
5617;DHT22;2830;50.656;7.568;2022-08-19T15:15:45;28.50;1.00
5617;DHT22;2830;50.656;7.568;2022-08-19T15:18:14;28.20;1.00
5617;DHT22;2830;50.656;7.568;2022-08-19T15:20:40;28.00;1.00
5617;DHT22;2830;50.656;7.568;2022-08-19T15:23:07;28.00;1.00
5617;DHT22;2830;50.656;7.568;2022-08-19T15:25:34;28.10;1.00
5617;DHT22;2830;50.656;7.568;2022-08-19T15:28:02;28.00;1.00
5617;DHT22;2830;50.656;7.568;2022-08-19T15:30:29;27.80;1.00
5617;DHT22;2830;50.656;7.568;2022-08-19T15:32:57;27.70;1.00
5617;DHT22;2830;50.656;7.568;2022-08-19T15:35:25;27.60;1.00
5617;DHT22;2830;50.656;7.568;2022-08-19T15:37:52;27.70;1.00
5617;DHT22;2830;50.656;7.568;2022-08-19T15:40:20;27.70;1.00
5617;DHT22;2830;50.656;7.568;2022-08-19T15:42:47;27.70;1.00
5617;DHT22;2830;50.656;7.568;2022-08-19T15:45:17;27.80;1.00
5617;DHT22;2830;50.656;7.568;2022-08-19T15:47:44;27.90;1.00
5617;DHT22;2830;50.656;7.568;2022-08-19T15:50:15;27.90;1.00
5617;DHT22;2830;50.656;7.568;2022-08-19T15:52:51;27.90;1.00
5617;DHT22;2830;50.656;7.568;2022-08-19T15:55:22;27.90;1.00
5617;DHT22;2830;50.656;7.568;2022-08-19T15:58:09;27.90;1.00
5617;DHT22;2830;50.656;7.568;2022-08-19T16:01:06;27.80;1.00
5617;DHT22;2830;50.656;7.568;2022-08-19T16:03:53;27.80;1.00
5617;DHT22;2830;50.656;7.568;2022-08-19T16:06:51;27.40;1.00
5617;DHT22;2830;50.656;7.568;2022-08-19T16:09:20;27.10;1.00
5617;DHT22;2830;50.656;7.568;2022-08-19T16:11:57;26.90;1.00
5617;DHT22;2830;50.656;7.568;2022-08-19T16:14:29;26.90;1.00
5617;DHT22;2830;50.656;7.568;2022-08-19T16:16:56;26.90;1.00
5617;DHT22;2830;50.656;7.568;2022-08-19T16:19:23;27.10;1.00
5617;DHT22;2830;50.656;7.568;2022-08-19T16:21:52;27.20;1.00
5617;DHT22;2830;50.656;7.568;2022-08-19T16:24:22;27.20;1.00
5617;DHT22;2830;50.656;7.568;2022-08-19T16:26:49;27.30;1.00
5617;DHT22;2830;50.656;7.568;2022-08-19T16:29:17;27.20;1.00
5617;DHT22;2830;50.656;7.568;2022-08-19T16:32:01;27.10;1.00
5617;DHT22;2830;50.656;7.568;2022-08-19T16:34:29;26.90;1.00
5617;DHT22;2830;50.656;7.568;2022-08-19T16:36:56;26.80;1.00
5617;DHT22;2830;50.656;7.568;2022-08-19T16:39:23;26.70;1.00
5617;DHT22;2830;50.656;7.568;2022-08-19T16:41:50;26.70;1.00
5617;DHT22;2830;50.656;7.568;2022-08-19T16:44:17;26.60;1.00
5617;DHT22;2830;50.656;7.568;2022-08-19T16:46:45;26.30;1.00
5617;DHT22;2830;50.656;7.568;2022-08-19T16:49:22;26.30;1.00